Time;durP1;ratioP1;P1;durP2;ratioP2;P2;SDS_P1;SDS_P2;PMS_P1;PMS_P2;Temp;Humidity;BMP_temperature;BMP_pressure;BME280_temperature;BME280_humidity;BME280_pressure;Samples;Min_cycle;Max_cycle;Signal;HPM_P1;HPM_P2
2024/01/24 00:00:37;;;;;;;0.00;0.00;;;10.50;99.90;;;;;;5091588;28;20222;-66
2024/01/24 00:03:03;;;;;;;0.00;0.00;;;10.50;99.90;;;;;;5091927;28;20778;-65
2024/01/24 00:05:29;;;;;;;0.00;0.00;;;10.50;99.90;;;;;;5091712;28;20644;-65
2024/01/24 00:07:55;;;;;;;0.00;0.00;;;10.50;99.90;;;;;;5091575;28;20216;-65
2024/01/24 00:10:20;;;;;;;0.00;0.00;;;10.60;99.90;;;;;;5090273;28;20310;-65
2024/01/24 00:12:46;;;;;;;0.00;0.00;;;10.60;99.90;;;;;;5091542;28;20179;-64
2024/01/24 00:15:12;;;;;;;0.20;0.20;;;10.70;99.90;;;;;;5092137;28;20211;-64
2024/01/24 00:17:38;;;;;;;0.00;0.00;;;10.70;99.90;;;;;;5091518;28;20339;-65
2024/01/24 00:20:04;;;;;;;0.00;0.00;;;10.70;99.90;;;;;;5091865;28;20172;-65
2024/01/24 00:22:29;;;;;;;0.00;0.00;;;10.70;99.90;;;;;;5091427;28;20180;-65
2024/01/24 00:24:55;;;;;;;0.00;0.00;;;10.70;99.90;;;;;;5091575;28;20184;-65
2024/01/24 00:27:20;;;;;;;0.00;0.00;;;10.70;99.90;;;;;;5090947;28;20204;-64
2024/01/24 00:29:46;;;;;;;0.00;0.00;;;10.70;99.90;;;;;;5091238;28;20659;-64
2024/01/24 00:32:11;;;;;;;0.00;0.00;;;10.80;99.90;;;;;;5091489;28;20184;-65
2024/01/24 00:34:37;;;;;;;0.00;0.00;;;10.80;99.90;;;;;;5091057;28;20284;-65
2024/01/24 00:37:02;;;;;;;0.00;0.00;;;10.80;99.90;;;;;;5090780;28;20180;-66
2024/01/24 00:39:28;;;;;;;0.00;0.00;;;10.80;99.90;;;;;;5090985;28;20305;-64
2024/01/24 00:41:58;;;;;;;0.08;0.08;;;10.80;99.90;;;;;;5089540;28;20176;-65
2024/01/24 00:44:23;;;;;;;0.00;0.00;;;10.80;99.90;;;;;;5091264;28;20188;-65
2024/01/24 00:46:49;;;;;;;0.00;0.00;;;10.80;99.90;;;;;;5090885;28;20176;-65
2024/01/24 00:49:15;;;;;;;0.00;0.00;;;10.90;99.90;;;;;;5091230;28;20237;-65
2024/01/24 00:51:40;;;;;;;0.00;0.00;;;10.90;99.90;;;;;;5090861;28;20180;-64
2024/01/24 00:54:06;;;;;;;0.00;0.00;;;10.90;99.90;;;;;;5090543;28;20658;-65
2024/01/24 00:56:31;;;;;;;0.00;0.00;;;10.90;99.90;;;;;;5090815;28;20172;-65
2024/01/24 00:58:57;;;;;;;0.00;0.00;;;11.00;99.90;;;;;;5090908;28;20188;-65
2024/01/24 01:01:22;;;;;;;0.00;0.00;;;11.00;99.90;;;;;;5090830;28;20203;-64
2024/01/24 01:03:48;;;;;;;0.00;0.00;;;11.10;99.90;;;;;;5090832;28;20180;-65
2024/01/24 01:06:13;;;;;;;0.00;0.00;;;11.10;99.90;;;;;;5090499;28;20532;-64
2024/01/24 01:08:39;;;;;;;0.00;0.00;;;11.10;99.90;;;;;;5090440;28;20571;-65
2024/01/24 01:11:07;;;;;;;0.00;0.00;;;11.10;99.90;;;;;;5090549;28;20184;-65
2024/01/24 01:13:34;;;;;;;0.00;0.00;;;11.10;99.90;;;;;;5090856;28;20249;-65
2024/01/24 01:15:59;;;;;;;0.70;0.55;;;11.10;99.90;;;;;;5090596;28;20180;-65
2024/01/24 01:18:25;;;;;;;0.00;0.00;;;11.10;99.90;;;;;;5090914;28;20240;-64
2024/01/24 01:20:51;;;;;;;0.00;0.00;;;11.10;99.90;;;;;;5090655;28;20655;-65
2024/01/24 01:23:16;;;;;;;0.00;0.00;;;11.10;99.90;;;;;;5090779;28;20184;-65
2024/01/24 01:25:42;;;;;;;0.00;0.00;;;11.10;99.90;;;;;;5090293;28;20271;-64
2024/01/24 01:28:07;;;;;;;0.00;0.00;;;11.20;99.90;;;;;;5088875;28;20208;-65
2024/01/24 01:30:33;;;;;;;0.00;0.00;;;11.20;99.90;;;;;;5090491;28;20180;-65
2024/01/24 01:32:59;;;;;;;0.00;0.00;;;11.20;99.90;;;;;;5090238;28;20186;-64
2024/01/24 01:35:24;;;;;;;0.00;0.00;;;11.20;99.90;;;;;;5089909;28;20244;-65
2024/01/24 01:37:50;;;;;;;0.00;0.00;;;11.30;99.90;;;;;;5091394;28;20188;-65
2024/01/24 01:40:15;;;;;;;0.00;0.00;;;11.20;99.90;;;;;;5094442;28;20234;-65
2024/01/24 01:42:45;;;;;;;0.10;0.10;;;11.20;99.90;;;;;;5094365;28;20188;-66
2024/01/24 01:45:11;;;;;;;0.00;0.00;;;11.20;99.90;;;;;;5094393;28;20180;-64
2024/01/24 01:47:37;;;;;;;0.00;0.00;;;11.30;99.90;;;;;;5094610;28;20222;-64
2024/01/24 01:50:16;;;;;;;0.00;0.00;;;11.30;99.90;;;;;;5094389;28;20275;-64
2024/01/24 01:52:43;;;;;;;0.00;0.00;;;11.30;99.90;;;;;;5079495;28;20647;-64
2024/01/24 01:55:11;;;;;;;0.00;0.00;;;11.30;99.90;;;;;;5094451;28;20184;-64
2024/01/24 01:57:38;;;;;;;0.00;0.00;;;11.30;99.90;;;;;;5094015;28;20176;-64
2024/01/24 02:00:05;;;;;;;0.00;0.00;;;11.30;99.90;;;;;;5094366;28;20561;-65
2024/01/24 02:02:31;;;;;;;0.00;0.00;;;11.30;99.90;;;;;;5094123;28;20180;-64
2024/01/24 02:04:57;;;;;;;0.00;0.00;;;11.30;99.90;;;;;;5094755;28;20180;-65
2024/01/24 02:07:23;;;;;;;0.00;0.00;;;11.30;99.90;;;;;;5093984;28;20207;-65
2024/01/24 02:09:49;;;;;;;0.00;0.00;;;11.30;99.90;;;;;;5093330;28;20184;-64
2024/01/24 02:12:14;;;;;;;0.00;0.00;;;11.30;99.90;;;;;;5093078;28;20187;-65
2024/01/24 02:14:41;;;;;;;0.00;0.00;;;11.30;99.90;;;;;;5092958;28;20180;-66
2024/01/24 02:17:07;;;;;;;0.00;0.00;;;11.30;99.90;;;;;;5093995;28;20172;-65
2024/01/24 02:19:32;;;;;;;0.00;0.00;;;11.20;99.90;;;;;;5093954;28;20530;-65
2024/01/24 02:21:58;;;;;;;0.00;0.00;;;11.20;99.90;;;;;;5093969;28;20196;-66
2024/01/24 02:24:24;;;;;;;0.00;0.00;;;11.10;99.90;;;;;;5093745;28;20182;-66
2024/01/24 02:26:50;;;;;;;0.00;0.00;;;11.10;99.90;;;;;;5093319;28;20210;-65
2024/01/24 02:29:15;;;;;;;0.00;0.00;;;11.10;99.90;;;;;;5094019;28;20176;-65
2024/01/24 02:31:41;;;;;;;0.00;0.00;;;11.10;99.90;;;;;;5093722;28;20191;-65
2024/01/24 02:34:07;;;;;;;0.00;0.00;;;11.10;99.90;;;;;;5093706;28;20188;-66
2024/01/24 02:36:32;;;;;;;0.00;0.00;;;11.10;99.90;;;;;;5090436;28;20184;-65
2024/01/24 02:38:58;;;;;;;0.00;0.00;;;11.10;99.90;;;;;;5091396;28;20255;-64
2024/01/24 02:41:23;;;;;;;0.00;0.00;;;11.10;99.90;;;;;;5092272;28;20270;-65
2024/01/24 02:43:49;;;;;;;0.00;0.00;;;11.10;99.90;;;;;;5092622;28;20180;-65
2024/01/24 02:46:14;;;;;;;0.00;0.00;;;11.10;99.90;;;;;;5093382;28;20321;-65
2024/01/24 02:48:40;;;;;;;0.00;0.00;;;11.10;99.90;;;;;;5092838;28;20265;-65
2024/01/24 02:51:06;;;;;;;0.00;0.00;;;11.10;99.90;;;;;;5075642;28;20178;-65
2024/01/24 02:53:31;;;;;;;0.00;0.00;;;11.10;99.90;;;;;;5093499;28;20184;-65
2024/01/24 02:55:57;;;;;;;0.00;0.00;;;11.10;99.90;;;;;;5093468;28;20186;-65
2024/01/24 02:58:22;;;;;;;0.00;0.00;;;11.10;99.90;;;;;;5093424;28;20258;-65
2024/01/24 03:00:48;;;;;;;0.00;0.00;;;11.10;99.90;;;;;;5092131;28;20459;-65
2024/01/24 03:03:13;;;;;;;0.00;0.00;;;11.10;99.90;;;;;;5093237;28;20635;-65
2024/01/24 03:05:39;;;;;;;0.00;0.00;;;11.10;99.90;;;;;;5093141;28;20180;-65
2024/01/24 03:08:05;;;;;;;0.00;0.00;;;11.10;99.90;;;;;;5093168;28;20208;-65
2024/01/24 03:10:30;;;;;;;0.00;0.00;;;11.10;99.90;;;;;;5092996;28;20233;-65
2024/01/24 03:12:56;;;;;;;0.00;0.00;;;11.10;99.90;;;;;;5093088;28;20184;-65
2024/01/24 03:15:21;;;;;;;0.00;0.00;;;11.10;99.90;;;;;;5092985;28;20200;-65
2024/01/24 03:17:47;;;;;;;0.00;0.00;;;11.00;99.90;;;;;;5092983;28;20539;-66
2024/01/24 03:20:14;;;;;;;0.00;0.00;;;11.10;99.90;;;;;;5093050;28;20180;-66
2024/01/24 03:22:42;;;;;;;0.00;0.00;;;11.10;99.90;;;;;;5092338;28;20759;-65
2024/01/24 03:25:08;;;;;;;0.00;0.00;;;11.20;99.90;;;;;;5092409;28;20177;-65
2024/01/24 03:27:34;;;;;;;0.00;0.00;;;11.20;99.90;;;;;;5092360;28;20504;-65
2024/01/24 03:29:59;;;;;;;0.00;0.00;;;11.20;99.90;;;;;;5092542;28;20816;-66
2024/01/24 03:32:25;;;;;;;0.00;0.00;;;11.20;99.90;;;;;;5092547;28;20176;-65
2024/01/24 03:34:54;;;;;;;0.00;0.00;;;11.20;99.90;;;;;;5092627;28;20175;-65
2024/01/24 03:37:20;;;;;;;0.00;0.00;;;11.20;99.90;;;;;;5077167;28;20180;-65
2024/01/24 03:39:46;;;;;;;0.00;0.00;;;11.20;99.90;;;;;;5091666;28;20549;-65
2024/01/24 03:42:11;;;;;;;0.00;0.00;;;11.20;99.90;;;;;;5092113;28;20186;-65
2024/01/24 03:44:37;;;;;;;0.00;0.00;;;11.20;99.90;;;;;;5092056;28;20169;-65
2024/01/24 03:47:02;;;;;;;0.00;0.00;;;11.20;99.90;;;;;;5091807;28;20687;-65
2024/01/24 03:49:29;;;;;;;0.00;0.00;;;11.20;99.90;;;;;;5092073;28;20195;-64
2024/01/24 03:51:54;;;;;;;0.00;0.00;;;11.20;99.90;;;;;;5091808;28;20171;-65
2024/01/24 03:54:20;;;;;;;0.00;0.00;;;11.20;99.90;;;;;;5091196;28;20541;-65
2024/01/24 03:56:46;;;;;;;0.00;0.00;;;11.20;99.90;;;;;;5091007;28;20177;-65
2024/01/24 03:59:11;;;;;;;0.00;0.00;;;11.30;99.90;;;;;;5091715;28;20209;-65
2024/01/24 04:01:37;;;;;;;0.00;0.00;;;11.30;99.90;;;;;;5091366;28;20187;-64
2024/01/24 04:04:02;;;;;;;0.00;0.00;;;11.40;99.90;;;;;;5091578;28;20199;-65
2024/01/24 04:06:28;;;;;;;0.00;0.00;;;11.40;99.90;;;;;;5091680;28;20188;-65
2024/01/24 04:08:53;;;;;;;0.00;0.00;;;11.40;99.90;;;;;;5091281;28;20284;-65
2024/01/24 04:11:19;;;;;;;0.10;0.10;;;11.50;99.90;;;;;;5091266;28;20176;-64
2024/01/24 04:13:44;;;;;;;0.00;0.00;;;11.50;99.90;;;;;;5091472;28;20187;-65
2024/01/24 04:16:10;;;;;;;0.00;0.00;;;11.50;99.90;;;;;;5091276;28;20212;-64
2024/01/24 04:18:37;;;;;;;0.00;0.00;;;11.50;99.90;;;;;;5091372;28;20764;-64
2024/01/24 04:21:03;;;;;;;0.00;0.00;;;11.50;99.90;;;;;;5089969;28;20176;-64
2024/01/24 04:23:28;;;;;;;0.00;0.00;;;11.60;99.90;;;;;;5091416;28;20740;-64
2024/01/24 04:25:53;;;;;;;0.00;0.00;;;11.60;99.90;;;;;;5090323;28;20666;-64
2024/01/24 04:28:19;;;;;;;0.00;0.00;;;11.60;99.90;;;;;;5089871;28;20227;-64
2024/01/24 04:30:44;;;;;;;0.00;0.00;;;11.70;99.90;;;;;;5091859;28;20199;-66
2024/01/24 04:33:10;;;;;;;0.00;0.00;;;11.60;99.90;;;;;;5094316;28;20232;-65
2024/01/24 04:35:36;;;;;;;0.00;0.00;;;11.60;99.90;;;;;;5091614;28;20662;-65
2024/01/24 04:38:01;;;;;;;0.00;0.00;;;11.60;99.90;;;;;;5091580;28;20535;-66
2024/01/24 04:40:27;;;;;;;0.00;0.00;;;11.70;99.90;;;;;;5091283;28;20721;-67
2024/01/24 04:42:52;;;;;;;0.00;0.00;;;11.70;99.90;;;;;;5090516;28;20190;-68
2024/01/24 04:45:18;;;;;;;0.00;0.00;;;11.70;99.90;;;;;;5094386;28;20271;-64
2024/01/24 04:47:45;;;;;;;0.00;0.00;;;11.70;99.90;;;;;;5091028;28;20195;-64
2024/01/24 04:50:11;;;;;;;0.00;0.00;;;11.80;99.90;;;;;;5091251;28;20187;-68
2024/01/24 04:52:36;;;;;;;0.00;0.00;;;11.80;99.90;;;;;;5090394;28;20176;-65
2024/01/24 04:55:02;;;;;;;0.00;0.00;;;11.90;99.90;;;;;;5090010;28;20184;-66
2024/01/24 04:57:28;;;;;;;0.00;0.00;;;11.90;99.90;;;;;;5091552;28;20253;-64
2024/01/24 04:59:53;;;;;;;0.00;0.00;;;11.90;99.90;;;;;;5091483;28;20183;-66
2024/01/24 05:02:19;;;;;;;0.00;0.00;;;12.00;99.90;;;;;;5091242;28;20195;-64
2024/01/24 05:04:45;;;;;;;0.00;0.00;;;11.90;99.90;;;;;;5091327;28;20184;-64
2024/01/24 05:07:11;;;;;;;0.00;0.00;;;12.00;99.90;;;;;;5091120;28;20196;-65
2024/01/24 05:09:36;;;;;;;0.00;0.00;;;12.00;99.90;;;;;;5091097;28;20192;-68
2024/01/24 05:12:02;;;;;;;0.00;0.00;;;12.10;99.90;;;;;;5090455;28;20187;-66
2024/01/24 05:14:28;;;;;;;0.00;0.00;;;12.10;99.90;;;;;;5090952;28;20182;-66
2024/01/24 05:16:53;;;;;;;0.10;0.10;;;12.00;99.90;;;;;;5096795;28;20180;-67
2024/01/24 05:19:19;;;;;;;0.00;0.00;;;12.10;99.90;;;;;;5089847;28;20702;-65
2024/01/24 05:21:44;;;;;;;0.00;0.00;;;12.10;99.90;;;;;;5091190;28;20541;-68
2024/01/24 05:24:10;;;;;;;0.00;0.00;;;12.10;99.90;;;;;;5091206;28;20167;-67
2024/01/24 05:26:37;;;;;;;0.00;0.00;;;12.20;99.90;;;;;;5090766;28;20199;-67
2024/01/24 05:29:05;;;;;;;0.00;0.00;;;12.20;99.90;;;;;;5091195;28;20295;-66
2024/01/24 05:31:33;;;;;;;0.00;0.00;;;12.20;99.90;;;;;;5090452;28;20184;-66
2024/01/24 05:34:00;;;;;;;0.00;0.00;;;12.20;99.90;;;;;;5092171;28;20191;-66
2024/01/24 05:36:26;;;;;;;0.00;0.00;;;12.20;99.90;;;;;;5090739;28;20537;-66
2024/01/24 05:38:51;;;;;;;0.00;0.00;;;12.30;99.90;;;;;;5090794;28;20223;-67
2024/01/24 05:41:17;;;;;;;0.00;0.00;;;12.40;99.90;;;;;;5090495;28;20214;-66
2024/01/24 05:43:42;;;;;;;0.00;0.00;;;12.40;99.90;;;;;;5091251;28;20168;-67
2024/01/24 05:46:08;;;;;;;0.00;0.00;;;12.40;99.90;;;;;;5090916;28;20278;-67
2024/01/24 05:48:34;;;;;;;0.00;0.00;;;12.40;99.90;;;;;;5091001;28;20216;-66
2024/01/24 05:51:00;;;;;;;0.00;0.00;;;12.50;99.90;;;;;;5091239;28;20173;-67
2024/01/24 05:53:26;;;;;;;0.00;0.00;;;12.50;99.90;;;;;;5091057;28;20184;-66
2024/01/24 05:55:51;;;;;;;0.00;0.00;;;12.50;99.90;;;;;;5090903;28;20188;-66
2024/01/24 05:58:17;;;;;;;0.00;0.00;;;12.60;99.90;;;;;;5091148;28;20200;-66
2024/01/24 06:00:43;;;;;;;0.00;0.00;;;12.60;99.90;;;;;;5090912;28;20172;-66
2024/01/24 06:03:08;;;;;;;0.00;0.00;;;12.60;99.90;;;;;;5090945;28;20648;-66
2024/01/24 06:05:34;;;;;;;0.00;0.00;;;12.60;99.90;;;;;;5090956;28;20176;-67
2024/01/24 06:07:59;;;;;;;0.00;0.00;;;12.60;99.90;;;;;;5090827;28;20212;-66
2024/01/24 06:10:25;;;;;;;0.00;0.00;;;12.60;99.90;;;;;;5090967;28;20175;-67
2024/01/24 06:12:50;;;;;;;0.00;0.00;;;12.60;99.90;;;;;;5090777;28;20183;-65
2024/01/24 06:15:18;;;;;;;0.00;0.00;;;12.70;99.90;;;;;;5090854;28;20639;-64
2024/01/24 06:17:43;;;;;;;0.00;0.00;;;12.70;99.90;;;;;;5090817;28;20176;-65
2024/01/24 06:20:10;;;;;;;0.00;0.00;;;12.80;99.90;;;;;;5089472;28;20752;-66
2024/01/24 06:22:35;;;;;;;0.00;0.00;;;12.80;99.90;;;;;;5090916;28;20191;-65
2024/01/24 06:25:02;;;;;;;0.00;0.00;;;12.80;99.90;;;;;;5093563;28;20176;-64
2024/01/24 06:27:28;;;;;;;0.00;0.00;;;12.80;99.90;;;;;;5094322;28;20263;-66
2024/01/24 06:29:56;;;;;;;0.00;0.00;;;12.70;99.90;;;;;;5094405;28;20200;-65
2024/01/24 06:32:21;;;;;;;0.00;0.00;;;12.70;99.90;;;;;;5094351;28;20176;-65
2024/01/24 06:34:47;;;;;;;0.00;0.00;;;12.60;99.90;;;;;;5094487;28;20191;-65
2024/01/24 06:37:12;;;;;;;0.00;0.00;;;12.50;99.90;;;;;;5094112;28;20669;-65
2024/01/24 06:39:38;;;;;;;0.00;0.00;;;12.40;99.90;;;;;;5093904;28;20277;-65
2024/01/24 06:42:03;;;;;;;0.00;0.00;;;12.30;99.90;;;;;;5094181;28;20176;-66
2024/01/24 06:44:29;;;;;;;0.00;0.00;;;12.30;99.90;;;;;;5093834;28;20183;-65
2024/01/24 06:46:54;;;;;;;0.00;0.00;;;12.20;99.90;;;;;;5093849;28;20169;-66
2024/01/24 06:49:20;;;;;;;0.00;0.00;;;12.20;99.90;;;;;;5093944;28;20663;-65
2024/01/24 06:51:46;;;;;;;0.10;0.10;;;12.20;99.90;;;;;;5093944;28;20200;-66
2024/01/24 06:54:12;;;;;;;0.00;0.00;;;12.20;99.90;;;;;;5093912;28;20187;-66
2024/01/24 06:56:38;;;;;;;0.00;0.00;;;12.20;99.90;;;;;;5093882;28;20169;-66
2024/01/24 06:59:03;;;;;;;0.00;0.00;;;12.10;99.90;;;;;;5093864;28;20529;-66
2024/01/24 07:01:29;;;;;;;0.00;0.00;;;12.20;99.90;;;;;;5093657;28;20180;-67
2024/01/24 07:03:54;;;;;;;0.00;0.00;;;12.10;99.90;;;;;;5093717;28;20176;-66
2024/01/24 07:06:20;;;;;;;0.00;0.00;;;12.10;99.90;;;;;;5093760;28;20176;-66
2024/01/24 07:08:45;;;;;;;0.00;0.00;;;12.10;99.90;;;;;;5093440;28;20666;-66
2024/01/24 07:11:11;;;;;;;0.00;0.00;;;12.20;99.90;;;;;;5093613;28;20176;-66
2024/01/24 07:13:37;;;;;;;0.03;0.03;;;12.20;99.90;;;;;;5093528;28;20643;-67
2024/01/24 07:16:04;;;;;;;0.00;0.00;;;12.20;99.90;;;;;;5093456;28;20172;-66
2024/01/24 07:18:33;;;;;;;0.00;0.00;;;12.20;99.90;;;;;;5093437;28;20508;-66
2024/01/24 07:21:03;;;;;;;0.00;0.00;;;12.20;99.90;;;;;;5093497;28;20241;-67
2024/01/24 07:23:28;;;;;;;0.00;0.00;;;12.20;99.90;;;;;;5093370;28;20535;-65
2024/01/24 07:25:54;;;;;;;0.00;0.00;;;12.20;99.90;;;;;;5093104;28;20175;-66
2024/01/24 07:28:19;;;;;;;0.00;0.00;;;12.20;99.90;;;;;;5093193;28;20219;-66
2024/01/24 07:30:46;;;;;;;0.00;0.00;;;12.30;99.90;;;;;;5093139;28;20729;-66
2024/01/24 07:33:12;;;;;;;0.00;0.00;;;12.30;99.90;;;;;;5093189;28;20854;-66
2024/01/24 07:35:37;;;;;;;0.00;0.00;;;12.30;99.90;;;;;;5092557;28;20173;-66
2024/01/24 07:38:03;;;;;;;0.00;0.00;;;12.40;99.90;;;;;;5093169;28;20176;-66
2024/01/24 07:40:29;;;;;;;0.00;0.00;;;12.40;99.90;;;;;;5092925;28;20762;-66
2024/01/24 07:42:54;;;;;;;0.00;0.00;;;12.40;99.90;;;;;;5091588;28;20574;-67
2024/01/24 07:45:20;;;;;;;0.00;0.00;;;12.50;99.90;;;;;;5093040;28;20263;-66
2024/01/24 07:47:47;;;;;;;0.00;0.00;;;12.50;99.90;;;;;;5092759;28;20293;-66
2024/01/24 07:50:13;;;;;;;0.00;0.00;;;12.60;99.90;;;;;;5092819;28;20203;-65
2024/01/24 07:52:40;;;;;;;0.00;0.00;;;12.60;99.90;;;;;;5092697;28;20300;-67
2024/01/24 07:55:05;;;;;;;0.00;0.00;;;12.60;99.90;;;;;;5092862;28;20204;-67
2024/01/24 07:57:31;;;;;;;0.00;0.00;;;12.60;99.90;;;;;;5092724;28;20657;-68
2024/01/24 07:59:56;;;;;;;0.00;0.00;;;12.70;99.90;;;;;;5092546;28;20263;-67
2024/01/24 08:02:22;;;;;;;0.00;0.00;;;12.60;99.90;;;;;;5091623;28;20176;-68
2024/01/24 08:04:47;;;;;;;0.00;0.00;;;12.70;99.90;;;;;;5092542;28;20182;-67
2024/01/24 08:07:13;;;;;;;0.00;0.00;;;12.70;99.90;;;;;;5092556;28;20588;-68
2024/01/24 08:09:38;;;;;;;0.00;0.00;;;12.70;99.90;;;;;;5092545;28;20259;-68
2024/01/24 08:12:04;;;;;;;0.00;0.00;;;12.80;99.90;;;;;;5092539;28;20172;-67
2024/01/24 08:14:30;;;;;;;0.00;0.00;;;12.80;99.90;;;;;;5092467;28;20184;-67
2024/01/24 08:17:03;;;;;;;0.00;0.00;;;12.80;99.90;;;;;;5092274;28;20539;-68
2024/01/24 08:19:29;;;;;;;0.00;0.00;;;12.80;99.90;;;;;;5092396;28;20184;-67
2024/01/24 08:21:55;;;;;;;0.00;0.00;;;12.80;99.90;;;;;;5092268;28;20525;-68
2024/01/24 08:24:21;;;;;;;0.00;0.00;;;12.70;99.90;;;;;;5092125;28;20180;-68
2024/01/24 08:26:47;;;;;;;0.00;0.00;;;12.70;99.90;;;;;;5092132;28;20176;-66
2024/01/24 08:29:12;;;;;;;0.00;0.00;;;12.70;99.90;;;;;;5091934;28;20226;-67
2024/01/24 08:31:38;;;;;;;0.00;0.00;;;12.70;99.90;;;;;;5091767;28;20262;-67
2024/01/24 08:34:03;;;;;;;0.00;0.00;;;12.70;99.90;;;;;;5091939;28;20180;-67
2024/01/24 08:36:29;;;;;;;0.00;0.00;;;12.70;99.90;;;;;;5091886;28;20195;-68
2024/01/24 08:38:54;;;;;;;0.00;0.00;;;12.70;99.90;;;;;;5091491;28;20269;-67
2024/01/24 08:41:20;;;;;;;0.00;0.00;;;12.70;99.90;;;;;;5091998;28;20720;-66
2024/01/24 08:43:45;;;;;;;0.00;0.00;;;12.70;99.90;;;;;;5091697;28;20183;-67
2024/01/24 08:46:11;;;;;;;0.00;0.00;;;12.70;99.90;;;;;;5091806;28;20278;-67
2024/01/24 08:48:36;;;;;;;0.00;0.00;;;12.70;99.90;;;;;;5090521;28;20218;-67
2024/01/24 08:51:02;;;;;;;0.00;0.00;;;12.70;99.90;;;;;;5091690;28;20551;-68
2024/01/24 08:53:27;;;;;;;0.00;0.00;;;12.70;99.90;;;;;;5091588;28;20582;-67
2024/01/24 08:55:53;;;;;;;0.00;0.00;;;12.70;99.90;;;;;;5091572;28;20172;-68
2024/01/24 08:58:18;;;;;;;0.00;0.00;;;12.70;99.90;;;;;;5091056;28;20179;-66
2024/01/24 09:00:45;;;;;;;0.00;0.00;;;12.70;99.90;;;;;;5091391;28;20176;-66
2024/01/24 09:03:11;;;;;;;0.00;0.00;;;12.70;99.90;;;;;;5091579;28;20306;-66
2024/01/24 09:05:36;;;;;;;0.00;0.00;;;12.70;99.90;;;;;;5091285;28;20180;-67
2024/01/24 09:08:02;;;;;;;0.00;0.00;;;12.60;99.90;;;;;;5091470;28;20226;-67
2024/01/24 09:10:27;;;;;;;0.00;0.00;;;12.60;99.90;;;;;;5091316;28;20168;-66
2024/01/24 09:12:53;;;;;;;0.10;0.10;;;12.50;99.90;;;;;;5091194;28;20172;-66
2024/01/24 09:15:19;;;;;;;0.00;0.00;;;12.40;99.90;;;;;;5091426;28;20179;-67
2024/01/24 09:17:45;;;;;;;0.00;0.00;;;12.30;99.90;;;;;;5091212;28;20179;-67
2024/01/24 09:20:10;;;;;;;0.00;0.00;;;12.30;99.90;;;;;;5091447;28;20267;-67
2024/01/24 09:22:36;;;;;;;0.00;0.00;;;12.20;99.90;;;;;;5091269;28;20176;-67
2024/01/24 09:25:02;;;;;;;0.00;0.00;;;12.10;99.90;;;;;;5091450;28;20180;-67
2024/01/24 09:27:28;;;;;;;0.00;0.00;;;12.10;99.90;;;;;;5091351;28;20287;-67
2024/01/24 09:29:53;;;;;;;0.00;0.00;;;12.10;99.90;;;;;;5091197;28;20754;-67
2024/01/24 09:32:19;;;;;;;0.00;0.00;;;12.10;99.90;;;;;;5091362;28;20183;-67
2024/01/24 09:34:45;;;;;;;0.00;0.00;;;12.10;99.90;;;;;;5091185;28;20211;-67
2024/01/24 09:37:11;;;;;;;0.00;0.00;;;12.10;99.90;;;;;;5091279;28;20596;-67
2024/01/24 09:39:36;;;;;;;0.00;0.00;;;12.10;99.90;;;;;;5090931;28;20220;-67
2024/01/24 09:42:04;;;;;;;0.00;0.00;;;12.20;99.90;;;;;;5091345;28;20179;-67
2024/01/24 09:44:32;;;;;;;0.00;0.00;;;12.20;99.90;;;;;;5091262;28;20169;-67
2024/01/24 09:46:59;;;;;;;0.00;0.00;;;12.30;99.90;;;;;;5091131;28;20233;-67
2024/01/24 09:49:25;;;;;;;0.00;0.00;;;12.40;99.90;;;;;;5091003;28;20188;-67
2024/01/24 09:51:53;;;;;;;0.00;0.00;;;12.30;99.90;;;;;;5091192;28;20179;-67
2024/01/24 09:54:19;;;;;;;0.00;0.00;;;12.30;99.90;;;;;;5091060;28;20652;-67
2024/01/24 09:56:45;;;;;;;0.00;0.00;;;12.30;99.90;;;;;;5090963;28;20186;-67
2024/01/24 09:59:11;;;;;;;0.00;0.00;;;12.30;99.90;;;;;;5092594;28;20196;-67
2024/01/24 10:01:39;;;;;;;0.00;0.00;;;12.30;99.90;;;;;;5094590;28;20265;-67
2024/01/24 10:04:06;;;;;;;0.00;0.00;;;12.30;99.90;;;;;;5095058;28;20172;-67
2024/01/24 10:06:32;;;;;;;0.00;0.00;;;12.20;99.90;;;;;;5094826;28;20237;-67
2024/01/24 10:08:58;;;;;;;0.00;0.00;;;12.20;99.90;;;;;;5094578;28;20333;-67
2024/01/24 10:11:25;;;;;;;0.00;0.00;;;12.20;99.90;;;;;;5094639;28;20191;-67
2024/01/24 10:13:58;;;;;;;0.00;0.00;;;12.20;99.90;;;;;;5094570;28;20229;-68
2024/01/24 10:16:25;;;;;;;0.00;0.00;;;12.20;99.90;;;;;;5094685;28;20631;-67
2024/01/24 10:18:53;;;;;;;0.00;0.00;;;12.20;99.90;;;;;;5094535;28;20538;-67
2024/01/24 10:21:19;;;;;;;0.00;0.00;;;12.20;99.90;;;;;;5094642;28;20225;-68
2024/01/24 10:23:44;;;;;;;0.00;0.00;;;12.30;99.90;;;;;;5094301;28;20188;-68
2024/01/24 10:26:10;;;;;;;0.00;0.00;;;12.30;99.90;;;;;;5094553;28;20217;-68
2024/01/24 10:28:36;;;;;;;0.00;0.00;;;12.30;99.90;;;;;;5094008;28;20218;-68
2024/01/24 10:31:02;;;;;;;0.00;0.00;;;12.40;99.90;;;;;;5094303;28;20245;-69
2024/01/24 10:33:31;;;;;;;0.00;0.00;;;12.30;99.90;;;;;;5094221;28;20176;-68
2024/01/24 10:35:58;;;;;;;0.00;0.00;;;12.30;99.90;;;;;;5094056;28;20187;-68
2024/01/24 10:38:28;;;;;;;0.00;0.00;;;12.30;99.90;;;;;;5094124;28;20176;-68
2024/01/24 10:41:02;;;;;;;0.00;0.00;;;12.20;99.90;;;;;;5093806;28;20722;-68
2024/01/24 10:43:28;;;;;;;0.00;0.00;;;12.10;99.90;;;;;;5094015;28;20180;-68
2024/01/24 10:45:55;;;;;;;0.00;0.00;;;12.00;99.90;;;;;;5093858;28;20237;-68
2024/01/24 10:48:21;;;;;;;0.00;0.00;;;12.00;99.90;;;;;;5093721;28;20587;-68
2024/01/24 10:50:47;;;;;;;0.00;0.00;;;12.10;99.90;;;;;;5093782;28;20183;-68
2024/01/24 10:53:13;;;;;;;0.00;0.00;;;12.10;99.90;;;;;;5093669;28;20180;-68
2024/01/24 10:55:42;;;;;;;0.00;0.00;;;12.30;99.90;;;;;;5092594;28;20263;-68
2024/01/24 10:58:11;;;;;;;0.00;0.00;;;12.50;99.90;;;;;;5093835;28;20186;-68
2024/01/24 11:00:41;;;;;;;0.00;0.00;;;12.70;99.90;;;;;;5093067;28;20208;-68
2024/01/24 11:03:07;;;;;;;0.00;0.00;;;12.90;99.90;;;;;;5093690;28;20263;-68
2024/01/24 11:05:45;;;;;;;0.00;0.00;;;13.00;99.90;;;;;;5093348;28;20200;-68
2024/01/24 11:08:25;;;;;;;0.00;0.00;;;13.20;99.90;;;;;;5093589;28;20705;-68
2024/01/24 11:10:55;;;;;;;0.00;0.00;;;13.40;99.90;;;;;;5092713;28;20184;-68
2024/01/24 11:13:23;;;;;;;0.00;0.00;;;13.50;99.90;;;;;;5093528;28;20172;-67
2024/01/24 11:15:48;;;;;;;0.00;0.00;;;13.70;99.90;;;;;;5093361;28;20176;-68
2024/01/24 11:18:24;;;;;;;0.00;0.00;;;13.80;99.90;;;;;;5093355;28;20176;-67
2024/01/24 11:20:52;;;;;;;0.00;0.00;;;13.90;99.90;;;;;;5093270;28;20176;-68
2024/01/24 11:23:44;;;;;;;0.00;0.00;;;14.00;99.90;;;;;;5093331;28;20187;-67
2024/01/24 11:26:17;;;;;;;0.00;0.00;;;14.10;99.90;;;;;;5093464;28;20176;-67
2024/01/24 11:28:43;;;;;;;0.00;0.00;;;14.10;99.90;;;;;;5093200;28;20666;-67
2024/01/24 11:31:09;;;;;;;0.00;0.00;;;14.10;99.90;;;;;;5093138;28;20238;-68
2024/01/24 11:33:35;;;;;;;0.00;0.00;;;14.10;99.90;;;;;;5091498;28;20229;-67
2024/01/24 11:36:05;;;;;;;0.00;0.00;;;14.00;99.90;;;;;;5093103;28;20172;-68
2024/01/24 11:38:35;;;;;;;0.00;0.00;;;14.10;99.90;;;;;;5092790;28;20180;-66
2024/01/24 11:41:10;;;;;;;0.00;0.00;;;14.00;99.90;;;;;;5092735;28;20513;-68
2024/01/24 11:43:35;;;;;;;0.00;0.00;;;14.00;99.90;;;;;;5092785;28;20200;-67
2024/01/24 11:46:03;;;;;;;0.00;0.00;;;14.00;99.90;;;;;;5092983;28;20177;-67
2024/01/24 11:48:31;;;;;;;0.00;0.00;;;14.10;99.90;;;;;;5092697;28;20220;-66
2024/01/24 11:51:05;;;;;;;0.00;0.00;;;14.10;99.90;;;;;;5092791;28;20233;-66
2024/01/24 11:53:31;;;;;;;0.00;0.00;;;14.10;99.90;;;;;;5092830;28;20163;-67
2024/01/24 11:55:56;;;;;;;0.00;0.00;;;14.20;99.90;;;;;;5092683;28;20258;-67
2024/01/24 11:58:26;;;;;;;0.00;0.00;;;14.20;99.90;;;;;;5092650;28;20181;-67
2024/01/24 12:00:56;;;;;;;0.00;0.00;;;14.20;99.90;;;;;;5092583;28;20169;-67
2024/01/24 12:03:22;;;;;;;0.00;0.00;;;14.20;99.90;;;;;;5092503;28;20294;-67
2024/01/24 12:05:48;;;;;;;0.00;0.00;;;14.30;99.90;;;;;;5092589;28;20255;-67
2024/01/24 12:08:14;;;;;;;0.00;0.00;;;14.30;99.90;;;;;;5092397;28;20246;-66
2024/01/24 12:10:40;;;;;;;0.00;0.00;;;14.20;99.90;;;;;;5092655;28;20176;-66
2024/01/24 12:13:06;;;;;;;0.00;0.00;;;14.10;99.90;;;;;;5092235;28;20316;-67
2024/01/24 12:15:33;;;;;;;0.00;0.00;;;14.00;99.90;;;;;;5092249;28;20564;-66
2024/01/24 12:18:17;;;;;;;0.00;0.00;;;13.90;99.90;;;;;;5092330;28;20669;-67
2024/01/24 12:20:47;;;;;;;0.00;0.00;;;13.90;99.90;;;;;;5092105;28;20524;-67
2024/01/24 12:23:14;;;;;;;0.00;0.00;;;13.80;99.90;;;;;;5091843;28;20518;-66
2024/01/24 12:25:40;;;;;;;0.00;0.00;;;13.90;99.90;;;;;;5092066;28;20164;-66
2024/01/24 12:28:07;;;;;;;0.00;0.00;;;13.80;99.90;;;;;;5090716;28;20217;-67
2024/01/24 12:30:32;;;;;;;0.00;0.00;;;13.80;99.90;;;;;;5091953;28;20681;-66
2024/01/24 12:33:07;;;;;;;0.00;0.00;;;13.80;99.90;;;;;;5092001;28;20194;-66
2024/01/24 12:35:33;;;;;;;0.00;0.00;;;13.80;99.90;;;;;;5091794;28;20576;-67
2024/01/24 12:37:59;;;;;;;0.00;0.00;;;13.80;99.90;;;;;;5091853;28;20229;-66
2024/01/24 12:40:30;;;;;;;0.00;0.00;;;13.80;99.90;;;;;;5091700;28;20227;-65
2024/01/24 12:42:57;;;;;;;0.00;0.00;;;13.90;99.90;;;;;;5091772;28;20168;-67